sensor_id;sensor_type;location;lat;lon;timestamp;pressure;altitude;pressure_sealevel;temperature;humidity
34931;BME280;21134;49.646;8.560;2022-11-27T00:02:09;101884.81;;;3.83;100.00
34931;BME280;21134;49.646;8.560;2022-11-27T00:04:35;101883.69;;;3.78;100.00
34931;BME280;21134;49.646;8.560;2022-11-27T00:07:01;101875.97;;;3.75;100.00
34931;BME280;21134;49.646;8.560;2022-11-27T00:09:28;101869.72;;;3.68;100.00
34931;BME280;21134;49.646;8.560;2022-11-27T00:11:56;101860.16;;;3.63;100.00
34931;BME280;21134;49.646;8.560;2022-11-27T00:14:22;101856.72;;;3.61;100.00
34931;BME280;21134;49.646;8.560;2022-11-27T00:16:49;101855.66;;;3.57;100.00
34931;BME280;21134;49.646;8.560;2022-11-27T00:19:15;101851.34;;;3.55;100.00
34931;BME280;21134;49.646;8.560;2022-11-27T00:21:42;101847.69;;;3.49;100.00
34931;BME280;21134;49.646;8.560;2022-11-27T00:24:09;101845.03;;;3.46;100.00
34931;BME280;21134;49.646;8.560;2022-11-27T00:26:36;101835.69;;;3.45;100.00
34931;BME280;21134;49.646;8.560;2022-11-27T00:29:05;101833.03;;;3.42;100.00
34931;BME280;21134;49.646;8.560;2022-11-27T00:31:33;101830.25;;;3.38;100.00
34931;BME280;21134;49.646;8.560;2022-11-27T00:34:03;101820.63;;;3.31;100.00
34931;BME280;21134;49.646;8.560;2022-11-27T00:36:31;101816.28;;;3.28;100.00
34931;BME280;21134;49.646;8.560;2022-11-27T00:38:58;101806.91;;;3.25;100.00
34931;BME280;21134;49.646;8.560;2022-11-27T00:41:26;101804.13;;;3.21;100.00
34931;BME280;21134;49.646;8.560;2022-11-27T00:43:53;101797.19;;;3.17;100.00
34931;BME280;21134;49.646;8.560;2022-11-27T00:46:22;101796.47;;;3.19;100.00
34931;BME280;21134;49.646;8.560;2022-11-27T00:48:49;101797.09;;;3.15;100.00
34931;BME280;21134;49.646;8.560;2022-11-27T00:51:17;101792.63;;;3.10;100.00
34931;BME280;21134;49.646;8.560;2022-11-27T00:53:44;101788.97;;;3.05;100.00
34931;BME280;21134;49.646;8.560;2022-11-27T00:56:14;101791.34;;;3.01;100.00
34931;BME280;21134;49.646;8.560;2022-11-27T00:58:41;101795.44;;;2.99;100.00
34931;BME280;21134;49.646;8.560;2022-11-27T01:01:07;101802.97;;;2.98;100.00
34931;BME280;21134;49.646;8.560;2022-11-27T01:03:35;101802.88;;;2.96;100.00
34931;BME280;21134;49.646;8.560;2022-11-27T01:06:03;101799.25;;;2.91;100.00
34931;BME280;21134;49.646;8.560;2022-11-27T01:08:29;101802.44;;;2.87;100.00
34931;BME280;21134;49.646;8.560;2022-11-27T01:10:56;101802.97;;;2.82;100.00
34931;BME280;21134;49.646;8.560;2022-11-27T01:13:24;101797.81;;;2.80;100.00
34931;BME280;21134;49.646;8.560;2022-11-27T01:15:57;101796.81;;;2.76;100.00
34931;BME280;21134;49.646;8.560;2022-11-27T01:18:24;101795.63;;;2.70;100.00
34931;BME280;21134;49.646;8.560;2022-11-27T01:20:52;101796.47;;;2.70;100.00
34931;BME280;21134;49.646;8.560;2022-11-27T01:23:19;101798.69;;;2.64;100.00
34931;BME280;21134;49.646;8.560;2022-11-27T01:25:46;101796.78;;;2.60;100.00
34931;BME280;21134;49.646;8.560;2022-11-27T01:28:13;101790.63;;;2.55;100.00
34931;BME280;21134;49.646;8.560;2022-11-27T01:30:40;101788.72;;;2.51;100.00
34931;BME280;21134;49.646;8.560;2022-11-27T01:33:06;101791.03;;;2.46;100.00
34931;BME280;21134;49.646;8.560;2022-11-27T01:35:33;101793.63;;;2.48;100.00
34931;BME280;21134;49.646;8.560;2022-11-27T01:38:01;101796.78;;;2.44;100.00
34931;BME280;21134;49.646;8.560;2022-11-27T01:40:27;101789.22;;;2.44;100.00
34931;BME280;21134;49.646;8.560;2022-11-27T01:42:54;101791.47;;;2.39;100.00
34931;BME280;21134;49.646;8.560;2022-11-27T01:45:21;101792.91;;;2.34;100.00
34931;BME280;21134;49.646;8.560;2022-11-27T01:47:50;101788.38;;;2.28;100.00
34931;BME280;21134;49.646;8.560;2022-11-27T01:50:20;101784.84;;;2.25;100.00
34931;BME280;21134;49.646;8.560;2022-11-27T01:52:50;101784.50;;;2.19;100.00
34931;BME280;21134;49.646;8.560;2022-11-27T01:55:22;101786.78;;;2.14;100.00
34931;BME280;21134;49.646;8.560;2022-11-27T01:57:54;101786.56;;;2.26;100.00
34931;BME280;21134;49.646;8.560;2022-11-27T02:00:22;101788.59;;;2.17;100.00
34931;BME280;21134;49.646;8.560;2022-11-27T02:02:48;101783.19;;;2.10;100.00
34931;BME280;21134;49.646;8.560;2022-11-27T02:05:19;101789.69;;;2.05;100.00
34931;BME280;21134;49.646;8.560;2022-11-27T02:07:46;101788.72;;;2.03;100.00
34931;BME280;21134;49.646;8.560;2022-11-27T02:10:13;101782.09;;;2.05;100.00
34931;BME280;21134;49.646;8.560;2022-11-27T02:12:49;101790.47;;;2.04;100.00
34931;BME280;21134;49.646;8.560;2022-11-27T02:15:19;101779.78;;;1.94;100.00
34931;BME280;21134;49.646;8.560;2022-11-27T02:17:54;101774.38;;;1.88;100.00
34931;BME280;21134;49.646;8.560;2022-11-27T02:20:37;101777.53;;;1.83;100.00
34931;BME280;21134;49.646;8.560;2022-11-27T02:23:21;101771.63;;;1.83;100.00
34931;BME280;21134;49.646;8.560;2022-11-27T02:26:03;101768.06;;;1.79;100.00
34931;BME280;21134;49.646;8.560;2022-11-27T02:28:56;101763.78;;;1.78;100.00
34931;BME280;21134;49.646;8.560;2022-11-27T02:31:27;101765.38;;;1.76;100.00
34931;BME280;21134;49.646;8.560;2022-11-27T02:34:00;101767.56;;;1.70;100.00
34931;BME280;21134;49.646;8.560;2022-11-27T02:36:29;101773.28;;;1.68;100.00
34931;BME280;21134;49.646;8.560;2022-11-27T02:39:03;101776.50;;;1.65;100.00
34931;BME280;21134;49.646;8.560;2022-11-27T02:41:32;101775.56;;;1.63;100.00
34931;BME280;21134;49.646;8.560;2022-11-27T02:44:04;101783.03;;;1.61;100.00
34931;BME280;21134;49.646;8.560;2022-11-27T02:46:33;101778.34;;;1.53;100.00
34931;BME280;21134;49.646;8.560;2022-11-27T02:49:02;101776.63;;;1.52;100.00
34931;BME280;21134;49.646;8.560;2022-11-27T02:51:35;101776.25;;;1.46;100.00
34931;BME280;21134;49.646;8.560;2022-11-27T02:54:05;101766.78;;;1.42;100.00
34931;BME280;21134;49.646;8.560;2022-11-27T02:56:34;101754.19;;;1.42;100.00
34931;BME280;21134;49.646;8.560;2022-11-27T02:59:02;101753.16;;;1.38;100.00
34931;BME280;21134;49.646;8.560;2022-11-27T03:01:35;101751.75;;;1.28;100.00
34931;BME280;21134;49.646;8.560;2022-11-27T03:04:07;101760.00;;;1.26;100.00
34931;BME280;21134;49.646;8.560;2022-11-27T03:06:38;101741.22;;;1.21;100.00
34931;BME280;21134;49.646;8.560;2022-11-27T03:09:09;101742.25;;;1.24;100.00
34931;BME280;21134;49.646;8.560;2022-11-27T03:11:39;101733.66;;;1.21;100.00
34931;BME280;21134;49.646;8.560;2022-11-27T03:14:07;101740.97;;;1.16;100.00
34931;BME280;21134;49.646;8.560;2022-11-27T03:16:39;101733.91;;;1.10;100.00
34931;BME280;21134;49.646;8.560;2022-11-27T03:19:13;101732.44;;;1.14;100.00
34931;BME280;21134;49.646;8.560;2022-11-27T03:21:44;101738.00;;;1.08;100.00
34931;BME280;21134;49.646;8.560;2022-11-27T03:24:13;101740.34;;;1.05;100.00
34931;BME280;21134;49.646;8.560;2022-11-27T03:26:40;101736.38;;;1.09;100.00
34931;BME280;21134;49.646;8.560;2022-11-27T03:29:10;101728.47;;;1.03;100.00
34931;BME280;21134;49.646;8.560;2022-11-27T03:31:39;101737.13;;;1.08;100.00
34931;BME280;21134;49.646;8.560;2022-11-27T03:34:06;101720.78;;;1.01;100.00
34931;BME280;21134;49.646;8.560;2022-11-27T03:36:33;101720.97;;;1.04;100.00
34931;BME280;21134;49.646;8.560;2022-11-27T03:38:59;101716.72;;;1.03;100.00
34931;BME280;21134;49.646;8.560;2022-11-27T03:41:33;101723.41;;;1.03;100.00
34931;BME280;21134;49.646;8.560;2022-11-27T03:44:07;101729.75;;;0.96;100.00
34931;BME280;21134;49.646;8.560;2022-11-27T03:46:45;101726.88;;;0.90;100.00
34931;BME280;21134;49.646;8.560;2022-11-27T03:49:22;101724.06;;;0.85;100.00
34931;BME280;21134;49.646;8.560;2022-11-27T03:51:54;101721.56;;;0.85;100.00
34931;BME280;21134;49.646;8.560;2022-11-27T03:54:33;101721.66;;;0.87;100.00
34931;BME280;21134;49.646;8.560;2022-11-27T03:57:05;101729.03;;;0.84;100.00
34931;BME280;21134;49.646;8.560;2022-11-27T03:59:41;101711.41;;;0.84;100.00
34931;BME280;21134;49.646;8.560;2022-11-27T04:02:13;101697.94;;;0.83;100.00
34931;BME280;21134;49.646;8.560;2022-11-27T04:04:40;101699.06;;;0.74;100.00
34931;BME280;21134;49.646;8.560;2022-11-27T04:07:08;101706.69;;;0.75;100.00
34931;BME280;21134;49.646;8.560;2022-11-27T04:09:41;101701.03;;;0.79;100.00
34931;BME280;21134;49.646;8.560;2022-11-27T04:12:07;101693.41;;;0.78;100.00
34931;BME280;21134;49.646;8.560;2022-11-27T04:14:33;101699.50;;;0.81;100.00
34931;BME280;21134;49.646;8.560;2022-11-27T04:17:00;101693.25;;;0.75;100.00
34931;BME280;21134;49.646;8.560;2022-11-27T04:19:28;101697.47;;;0.76;100.00
34931;BME280;21134;49.646;8.560;2022-11-27T04:21:54;101704.34;;;0.78;100.00
34931;BME280;21134;49.646;8.560;2022-11-27T04:24:21;101701.66;;;0.75;100.00
34931;BME280;21134;49.646;8.560;2022-11-27T04:26:47;101701.16;;;0.81;100.00
34931;BME280;21134;49.646;8.560;2022-11-27T04:29:14;101707.06;;;0.81;100.00
34931;BME280;21134;49.646;8.560;2022-11-27T04:31:40;101698.34;;;0.76;100.00
34931;BME280;21134;49.646;8.560;2022-11-27T04:34:07;101698.88;;;0.71;100.00
34931;BME280;21134;49.646;8.560;2022-11-27T04:36:34;101696.06;;;0.66;100.00
34931;BME280;21134;49.646;8.560;2022-11-27T04:39:01;101696.00;;;0.64;100.00
34931;BME280;21134;49.646;8.560;2022-11-27T04:41:27;101696.59;;;0.60;100.00
34931;BME280;21134;49.646;8.560;2022-11-27T04:43:54;101688.16;;;0.60;100.00
34931;BME280;21134;49.646;8.560;2022-11-27T04:46:20;101689.22;;;0.63;100.00
34931;BME280;21134;49.646;8.560;2022-11-27T04:48:47;101685.22;;;0.67;100.00
34931;BME280;21134;49.646;8.560;2022-11-27T04:51:13;101687.59;;;0.79;100.00
34931;BME280;21134;49.646;8.560;2022-11-27T04:53:41;101673.50;;;0.82;100.00
34931;BME280;21134;49.646;8.560;2022-11-27T04:56:08;101669.69;;;0.89;100.00
34931;BME280;21134;49.646;8.560;2022-11-27T04:58:34;101667.63;;;0.97;100.00
34931;BME280;21134;49.646;8.560;2022-11-27T05:01:01;101682.06;;;0.99;100.00
34931;BME280;21134;49.646;8.560;2022-11-27T05:03:27;101679.78;;;1.04;100.00
34931;BME280;21134;49.646;8.560;2022-11-27T05:05:54;101675.00;;;1.08;100.00
34931;BME280;21134;49.646;8.560;2022-11-27T05:08:21;101683.00;;;1.16;100.00
34931;BME280;21134;49.646;8.560;2022-11-27T05:10:59;101678.31;;;1.22;100.00
34931;BME280;21134;49.646;8.560;2022-11-27T05:13:25;101673.59;;;1.28;100.00
34931;BME280;21134;49.646;8.560;2022-11-27T05:15:52;101672.19;;;1.33;100.00
34931;BME280;21134;49.646;8.560;2022-11-27T05:18:18;101675.69;;;1.35;100.00
34931;BME280;21134;49.646;8.560;2022-11-27T05:20:45;101683.31;;;1.37;100.00
34931;BME280;21134;49.646;8.560;2022-11-27T05:23:11;101683.31;;;1.37;100.00
34931;BME280;21134;49.646;8.560;2022-11-27T05:25:38;101674.34;;;1.42;100.00
34931;BME280;21134;49.646;8.560;2022-11-27T05:28:05;101673.03;;;1.49;100.00
34931;BME280;21134;49.646;8.560;2022-11-27T05:30:32;101667.47;;;1.54;100.00
34931;BME280;21134;49.646;8.560;2022-11-27T05:32:58;101664.25;;;1.57;100.00
34931;BME280;21134;49.646;8.560;2022-11-27T05:35:25;101665.28;;;1.60;100.00
34931;BME280;21134;49.646;8.560;2022-11-27T05:37:52;101669.63;;;1.63;100.00
34931;BME280;21134;49.646;8.560;2022-11-27T05:40:19;101675.94;;;1.71;100.00
34931;BME280;21134;49.646;8.560;2022-11-27T05:42:45;101679.50;;;1.75;100.00
34931;BME280;21134;49.646;8.560;2022-11-27T05:45:13;101685.09;;;1.69;100.00
34931;BME280;21134;49.646;8.560;2022-11-27T05:47:40;101674.13;;;1.69;100.00
34931;BME280;21134;49.646;8.560;2022-11-27T05:50:07;101672.72;;;1.74;100.00
34931;BME280;21134;49.646;8.560;2022-11-27T05:52:34;101672.63;;;1.72;100.00
34931;BME280;21134;49.646;8.560;2022-11-27T05:55:00;101665.53;;;1.65;100.00
34931;BME280;21134;49.646;8.560;2022-11-27T05:57:27;101670.31;;;1.60;100.00
34931;BME280;21134;49.646;8.560;2022-11-27T05:59:55;101674.34;;;1.57;100.00
34931;BME280;21134;49.646;8.560;2022-11-27T06:02:23;101663.22;;;1.53;100.00
34931;BME280;21134;49.646;8.560;2022-11-27T06:04:50;101663.22;;;1.53;100.00
34931;BME280;21134;49.646;8.560;2022-11-27T06:07:17;101648.84;;;1.52;100.00
34931;BME280;21134;49.646;8.560;2022-11-27T06:09:44;101649.72;;;1.53;100.00
34931;BME280;21134;49.646;8.560;2022-11-27T06:12:10;101651.81;;;1.60;100.00
34931;BME280;21134;49.646;8.560;2022-11-27T06:14:37;101652.84;;;1.63;100.00
34931;BME280;21134;49.646;8.560;2022-11-27T06:17:03;101667.34;;;1.68;100.00
34931;BME280;21134;49.646;8.560;2022-11-27T06:19:31;101661.16;;;1.62;100.00
34931;BME280;21134;49.646;8.560;2022-11-27T06:21:57;101663.78;;;1.64;100.00
34931;BME280;21134;49.646;8.560;2022-11-27T06:24:24;101659.59;;;1.65;100.00
34931;BME280;21134;49.646;8.560;2022-11-27T06:26:51;101661.34;;;1.66;100.00
34931;BME280;21134;49.646;8.560;2022-11-27T06:29:17;101671.00;;;1.73;100.00
34931;BME280;21134;49.646;8.560;2022-11-27T06:31:44;101658.53;;;1.76;100.00
34931;BME280;21134;49.646;8.560;2022-11-27T06:34:11;101660.19;;;1.75;100.00
34931;BME280;21134;49.646;8.560;2022-11-27T06:36:39;101646.09;;;1.79;100.00
34931;BME280;21134;49.646;8.560;2022-11-27T06:39:08;101648.84;;;1.83;100.00
34931;BME280;21134;49.646;8.560;2022-11-27T06:41:35;101625.50;;;1.88;100.00
34931;BME280;21134;49.646;8.560;2022-11-27T06:44:02;101626.63;;;1.93;100.00
34931;BME280;21134;49.646;8.560;2022-11-27T06:46:29;101628.50;;;1.97;100.00
34931;BME280;21134;49.646;8.560;2022-11-27T06:48:56;101623.84;;;1.88;100.00
34931;BME280;21134;49.646;8.560;2022-11-27T06:51:24;101621.16;;;1.85;100.00
34931;BME280;21134;49.646;8.560;2022-11-27T06:53:53;101628.59;;;1.82;100.00
34931;BME280;21134;49.646;8.560;2022-11-27T06:56:21;101622.66;;;1.81;100.00
34931;BME280;21134;49.646;8.560;2022-11-27T06:58:50;101627.16;;;1.87;100.00
34931;BME280;21134;49.646;8.560;2022-11-27T07:01:17;101619.06;;;1.93;100.00
34931;BME280;21134;49.646;8.560;2022-11-27T07:03:43;101623.94;;;1.90;100.00
34931;BME280;21134;49.646;8.560;2022-11-27T07:06:13;101632.38;;;1.90;100.00
34931;BME280;21134;49.646;8.560;2022-11-27T07:08:41;101624.41;;;1.99;100.00
34931;BME280;21134;49.646;8.560;2022-11-27T07:11:11;101620.88;;;1.95;100.00
34931;BME280;21134;49.646;8.560;2022-11-27T07:13:38;101600.91;;;2.00;100.00
34931;BME280;21134;49.646;8.560;2022-11-27T07:16:07;101602.03;;;2.05;100.00
34931;BME280;21134;49.646;8.560;2022-11-27T07:18:34;101605.72;;;2.12;100.00
34931;BME280;21134;49.646;8.560;2022-11-27T07:21:01;101598.06;;;2.10;100.00
34931;BME280;21134;49.646;8.560;2022-11-27T07:23:28;101603.28;;;2.13;100.00
34931;BME280;21134;49.646;8.560;2022-11-27T07:25:56;101594.13;;;2.15;100.00
34931;BME280;21134;49.646;8.560;2022-11-27T07:28:24;101591.81;;;2.20;100.00
34931;BME280;21134;49.646;8.560;2022-11-27T07:30:53;101597.03;;;2.23;100.00
34931;BME280;21134;49.646;8.560;2022-11-27T07:33:20;101597.59;;;2.17;100.00
34931;BME280;21134;49.646;8.560;2022-11-27T07:35:47;101596.09;;;2.21;100.00
34931;BME280;21134;49.646;8.560;2022-11-27T07:38:13;101592.63;;;2.19;100.00
34931;BME280;21134;49.646;8.560;2022-11-27T07:40:40;101604.06;;;2.12;100.00
34931;BME280;21134;49.646;8.560;2022-11-27T07:43:06;101599.41;;;2.20;100.00
34931;BME280;21134;49.646;8.560;2022-11-27T07:45:34;101609.19;;;2.30;100.00
34931;BME280;21134;49.646;8.560;2022-11-27T07:48:00;101602.94;;;2.40;100.00
34931;BME280;21134;49.646;8.560;2022-11-27T07:50:27;101605.47;;;2.40;100.00
34931;BME280;21134;49.646;8.560;2022-11-27T07:52:54;101611.44;;;2.42;100.00
34931;BME280;21134;49.646;8.560;2022-11-27T07:55:20;101609.16;;;2.46;100.00
34931;BME280;21134;49.646;8.560;2022-11-27T07:57:47;101615.72;;;2.43;100.00
34931;BME280;21134;49.646;8.560;2022-11-27T08:00:14;101611.59;;;2.45;100.00
34931;BME280;21134;49.646;8.560;2022-11-27T08:02:42;101606.00;;;2.50;100.00
34931;BME280;21134;49.646;8.560;2022-11-27T08:05:08;101596.03;;;2.53;100.00
34931;BME280;21134;49.646;8.560;2022-11-27T08:07:35;101598.78;;;2.58;100.00
34931;BME280;21134;49.646;8.560;2022-11-27T08:10:02;101592.66;;;2.53;100.00
34931;BME280;21134;49.646;8.560;2022-11-27T08:12:28;101578.38;;;2.53;100.00
34931;BME280;21134;49.646;8.560;2022-11-27T08:14:55;101570.63;;;2.50;100.00
34931;BME280;21134;49.646;8.560;2022-11-27T08:17:21;101561.63;;;2.55;100.00
34931;BME280;21134;49.646;8.560;2022-11-27T08:19:49;101560.38;;;2.47;100.00
34931;BME280;21134;49.646;8.560;2022-11-27T08:22:16;101571.69;;;2.38;100.00
34931;BME280;21134;49.646;8.560;2022-11-27T08:24:45;101570.25;;;2.43;100.00
34931;BME280;21134;49.646;8.560;2022-11-27T08:27:13;101552.66;;;2.44;100.00
34931;BME280;21134;49.646;8.560;2022-11-27T08:29:40;101548.75;;;2.51;100.00
34931;BME280;21134;49.646;8.560;2022-11-27T08:32:07;101542.00;;;2.50;100.00
34931;BME280;21134;49.646;8.560;2022-11-27T08:34:33;101546.47;;;2.55;100.00
34931;BME280;21134;49.646;8.560;2022-11-27T08:37:02;101546.84;;;2.63;100.00
34931;BME280;21134;49.646;8.560;2022-11-27T08:39:29;101544.88;;;2.58;100.00
34931;BME280;21134;49.646;8.560;2022-11-27T08:41:55;101534.25;;;2.65;100.00
34931;BME280;21134;49.646;8.560;2022-11-27T08:44:21;101541.22;;;2.69;100.00
34931;BME280;21134;49.646;8.560;2022-11-27T08:46:48;101523.69;;;2.72;100.00
34931;BME280;21134;49.646;8.560;2022-11-27T08:49:14;101541.38;;;2.72;100.00
34931;BME280;21134;49.646;8.560;2022-11-27T08:51:41;101557.53;;;2.75;100.00
34931;BME280;21134;49.646;8.560;2022-11-27T08:54:09;101567.13;;;2.83;100.00
34931;BME280;21134;49.646;8.560;2022-11-27T08:56:35;101556.50;;;2.90;100.00
34931;BME280;21134;49.646;8.560;2022-11-27T08:59:02;101550.03;;;2.95;100.00
34931;BME280;21134;49.646;8.560;2022-11-27T09:01:30;101552.41;;;2.92;100.00
34931;BME280;21134;49.646;8.560;2022-11-27T09:03:57;101546.78;;;2.97;100.00
34931;BME280;21134;49.646;8.560;2022-11-27T09:06:26;101544.09;;;2.94;100.00
34931;BME280;21134;49.646;8.560;2022-11-27T09:08:54;101550.03;;;2.95;100.00
34931;BME280;21134;49.646;8.560;2022-11-27T09:11:22;101544.69;;;3.07;100.00
34931;BME280;21134;49.646;8.560;2022-11-27T09:13:49;101547.97;;;3.06;100.00
34931;BME280;21134;49.646;8.560;2022-11-27T09:16:17;101548.50;;;2.98;100.00
34931;BME280;21134;49.646;8.560;2022-11-27T09:18:44;101546.06;;;3.00;100.00
34931;BME280;21134;49.646;8.560;2022-11-27T09:21:12;101533.53;;;3.03;100.00
34931;BME280;21134;49.646;8.560;2022-11-27T09:23:39;101518.50;;;3.06;100.00
34931;BME280;21134;49.646;8.560;2022-11-27T09:26:07;101517.00;;;3.10;100.00
34931;BME280;21134;49.646;8.560;2022-11-27T09:28:36;101508.81;;;3.15;100.00
34931;BME280;21134;49.646;8.560;2022-11-27T09:31:04;101518.34;;;3.21;100.00
34931;BME280;21134;49.646;8.560;2022-11-27T09:33:33;101524.34;;;3.23;100.00
34931;BME280;21134;49.646;8.560;2022-11-27T09:36:03;101519.34;;;3.24;100.00
34931;BME280;21134;49.646;8.560;2022-11-27T09:38:30;101532.84;;;3.25;100.00
34931;BME280;21134;49.646;8.560;2022-11-27T09:40:59;101531.47;;;3.32;100.00
34931;BME280;21134;49.646;8.560;2022-11-27T09:43:30;101534.13;;;3.35;100.00
34931;BME280;21134;49.646;8.560;2022-11-27T09:46:03;101533.28;;;3.34;100.00
34931;BME280;21134;49.646;8.560;2022-11-27T09:48:34;101530.69;;;3.33;100.00
34931;BME280;21134;49.646;8.560;2022-11-27T09:51:08;101535.03;;;3.35;100.00
34931;BME280;21134;49.646;8.560;2022-11-27T09:53:43;101525.06;;;3.38;100.00
34931;BME280;21134;49.646;8.560;2022-11-27T09:56:12;101514.13;;;3.39;100.00
34931;BME280;21134;49.646;8.560;2022-11-27T09:58:44;101508.47;;;3.45;100.00
34931;BME280;21134;49.646;8.560;2022-11-27T10:01:15;101509.94;;;3.59;100.00
34931;BME280;21134;49.646;8.560;2022-11-27T10:03:43;101500.09;;;3.65;100.00
34931;BME280;21134;49.646;8.560;2022-11-27T10:06:19;101503.22;;;3.60;100.00
34931;BME280;21134;49.646;8.560;2022-11-27T10:08:56;101500.22;;;3.49;100.00
34931;BME280;21134;49.646;8.560;2022-11-27T10:11:29;101491.97;;;3.53;100.00
34931;BME280;21134;49.646;8.560;2022-11-27T10:14:08;101491.69;;;3.47;100.00
34931;BME280;21134;49.646;8.560;2022-11-27T10:16:47;101476.31;;;3.42;100.00
34931;BME280;21134;49.646;8.560;2022-11-27T10:19:24;101464.06;;;3.52;100.00
34931;BME280;21134;49.646;8.560;2022-11-27T10:21:55;101466.75;;;3.55;100.00
34931;BME280;21134;49.646;8.560;2022-11-27T10:24:30;101463.66;;;3.62;100.00
34931;BME280;21134;49.646;8.560;2022-11-27T10:27:04;101466.72;;;3.74;100.00
34931;BME280;21134;49.646;8.560;2022-11-27T10:29:40;101453.50;;;3.81;100.00
34931;BME280;21134;49.646;8.560;2022-11-27T10:32:14;101449.53;;;3.86;100.00
34931;BME280;21134;49.646;8.560;2022-11-27T10:34:43;101433.16;;;3.99;100.00
34931;BME280;21134;49.646;8.560;2022-11-27T10:37:14;101418.47;;;3.90;100.00
34931;BME280;21134;49.646;8.560;2022-11-27T10:39:45;101423.19;;;3.83;100.00
34931;BME280;21134;49.646;8.560;2022-11-27T10:42:17;101424.00;;;3.82;100.00
34931;BME280;21134;49.646;8.560;2022-11-27T10:44:49;101416.50;;;3.83;100.00
34931;BME280;21134;49.646;8.560;2022-11-27T10:47:21;101414.25;;;3.91;100.00
34931;BME280;21134;49.646;8.560;2022-11-27T10:49:48;101407.28;;;3.85;100.00
34931;BME280;21134;49.646;8.560;2022-11-27T10:52:16;101405.38;;;4.01;100.00
34931;BME280;21134;49.646;8.560;2022-11-27T10:54:47;101403.66;;;4.00;100.00
34931;BME280;21134;49.646;8.560;2022-11-27T10:57:36;101393.66;;;4.03;100.00
34931;BME280;21134;49.646;8.560;2022-11-27T11:00:08;101385.06;;;3.99;100.00
34931;BME280;21134;49.646;8.560;2022-11-27T11:02:38;101389.25;;;3.99;100.00
34931;BME280;21134;49.646;8.560;2022-11-27T11:05:25;101388.56;;;4.03;100.00
34931;BME280;21134;49.646;8.560;2022-11-27T11:07:55;101382.78;;;4.05;100.00
34931;BME280;21134;49.646;8.560;2022-11-27T11:10:25;101367.91;;;4.14;100.00
34931;BME280;21134;49.646;8.560;2022-11-27T11:13:12;101358.69;;;4.15;100.00
34931;BME280;21134;49.646;8.560;2022-11-27T11:15:49;101362.13;;;4.17;100.00
34931;BME280;21134;49.646;8.560;2022-11-27T11:18:18;101347.03;;;4.20;100.00
34931;BME280;21134;49.646;8.560;2022-11-27T11:20:46;101346.34;;;4.24;100.00
34931;BME280;21134;49.646;8.560;2022-11-27T11:23:22;101338.34;;;4.36;100.00
34931;BME280;21134;49.646;8.560;2022-11-27T11:25:52;101340.25;;;4.41;100.00
34931;BME280;21134;49.646;8.560;2022-11-27T11:28:20;101342.41;;;4.53;100.00
34931;BME280;21134;49.646;8.560;2022-11-27T11:30:56;101341.19;;;4.43;100.00
34931;BME280;21134;49.646;8.560;2022-11-27T11:33:26;101343.25;;;4.76;100.00
34931;BME280;21134;49.646;8.560;2022-11-27T11:35:54;101340.25;;;4.64;100.00
34931;BME280;21134;49.646;8.560;2022-11-27T11:38:27;101324.66;;;4.53;100.00
34931;BME280;21134;49.646;8.560;2022-11-27T11:41:01;101321.91;;;4.71;100.00
34931;BME280;21134;49.646;8.560;2022-11-27T11:43:29;101319.78;;;4.82;99.74
34931;BME280;21134;49.646;8.560;2022-11-27T11:46:04;101316.81;;;4.70;99.65
34931;BME280;21134;49.646;8.560;2022-11-27T11:48:34;101318.00;;;4.79;100.00
34931;BME280;21134;49.646;8.560;2022-11-27T11:51:07;101318.25;;;4.87;100.00
34931;BME280;21134;49.646;8.560;2022-11-27T11:53:38;101315.19;;;4.96;99.96
34931;BME280;21134;49.646;8.560;2022-11-27T11:56:16;101319.06;;;5.10;99.46
34931;BME280;21134;49.646;8.560;2022-11-27T11:58:52;101310.91;;;5.19;98.19
34931;BME280;21134;49.646;8.560;2022-11-27T12:01:31;101309.84;;;5.12;98.46
34931;BME280;21134;49.646;8.560;2022-11-27T12:04:17;101301.53;;;5.16;98.31
34931;BME280;21134;49.646;8.560;2022-11-27T12:06:54;101303.75;;;5.07;98.40
34931;BME280;21134;49.646;8.560;2022-11-27T12:09:42;101302.56;;;5.21;97.70
34931;BME280;21134;49.646;8.560;2022-11-27T12:12:20;101301.69;;;5.21;97.67
34931;BME280;21134;49.646;8.560;2022-11-27T12:14:55;101302.44;;;5.44;96.43
34931;BME280;21134;49.646;8.560;2022-11-27T12:17:37;101284.50;;;5.65;96.04
34931;BME280;21134;49.646;8.560;2022-11-27T12:20:18;101273.00;;;5.76;94.98
34931;BME280;21134;49.646;8.560;2022-11-27T12:23:19;101263.06;;;5.82;93.98
34931;BME280;21134;49.646;8.560;2022-11-27T12:25:53;101264.84;;;5.86;93.23
34931;BME280;21134;49.646;8.560;2022-11-27T12:28:40;101261.81;;;5.96;94.67
34931;BME280;21134;49.646;8.560;2022-11-27T12:31:21;101245.91;;;6.02;93.82
34931;BME280;21134;49.646;8.560;2022-11-27T12:33:59;101254.16;;;5.95;94.34
34931;BME280;21134;49.646;8.560;2022-11-27T12:36:40;101245.03;;;6.01;95.51
34931;BME280;21134;49.646;8.560;2022-11-27T12:39:11;101248.63;;;6.08;95.66
34931;BME280;21134;49.646;8.560;2022-11-27T12:41:54;101243.28;;;5.99;95.72
34931;BME280;21134;49.646;8.560;2022-11-27T12:44:29;101235.75;;;6.02;95.92
34931;BME280;21134;49.646;8.560;2022-11-27T12:47:05;101237.97;;;6.20;95.38
34931;BME280;21134;49.646;8.560;2022-11-27T12:49:39;101227.75;;;6.18;95.80
34931;BME280;21134;49.646;8.560;2022-11-27T12:52:13;101235.44;;;6.20;95.39
34931;BME280;21134;49.646;8.560;2022-11-27T12:54:45;101223.84;;;6.29;95.23
34931;BME280;21134;49.646;8.560;2022-11-27T12:57:17;101227.50;;;6.39;94.31
34931;BME280;21134;49.646;8.560;2022-11-27T12:59:49;101209.31;;;6.57;94.14
34931;BME280;21134;49.646;8.560;2022-11-27T13:02:32;101208.97;;;6.75;93.27
34931;BME280;21134;49.646;8.560;2022-11-27T13:05:02;101202.94;;;6.71;93.57